sensor_id;sensor_type;location;lat;lon;timestamp;pressure;altitude;pressure_sealevel;temperature;humidity
50040;BME280;44598;51.606;5.912;2023-01-28T00:12:22;102500;;;4.9;80.0
50040;BME280;44598;51.606;5.912;2023-01-28T00:25:42;102500;;;4.9;79.8
50040;BME280;44598;51.606;5.912;2023-01-28T01:05:41;102600;;;4.8;80.1
50040;BME280;44598;51.606;5.912;2023-01-28T01:19:01;102600;;;4.8;80.8
50040;BME280;44598;51.606;5.912;2023-01-28T01:32:21;102600;;;4.8;80.0
50040;BME280;44598;51.606;5.912;2023-01-28T01:45:41;102600;;;4.8;79.3
50040;BME280;44598;51.606;5.912;2023-01-28T01:59:01;102600;;;4.7;79.2
50040;BME280;44598;51.606;5.912;2023-01-28T02:12:20;102600;;;4.7;80.0
50040;BME280;44598;51.606;5.912;2023-01-28T02:25:40;102600;;;4.6;79.1
50040;BME280;44598;51.606;5.912;2023-01-28T02:52:20;102600;;;4.6;79.1
50040;BME280;44598;51.606;5.912;2023-01-28T03:05:40;102600;;;4.6;79.5
50040;BME280;44598;51.606;5.912;2023-01-28T03:18:59;102600;;;4.6;79.7
50040;BME280;44598;51.606;5.912;2023-01-28T03:32:19;102600;;;4.6;79.8
50040;BME280;44598;51.606;5.912;2023-01-28T03:45:39;102600;;;4.5;80.5
50040;BME280;44598;51.606;5.912;2023-01-28T03:58:59;102600;;;4.5;81.0
50040;BME280;44598;51.606;5.912;2023-01-28T04:52:18;102600;;;4.2;77.4
50040;BME280;44598;51.606;5.912;2023-01-28T05:05:38;102600;;;4.1;76.1
50040;BME280;44598;51.606;5.912;2023-01-28T05:18:58;102600;;;4.0;75.4
50040;BME280;44598;51.606;5.912;2023-01-28T05:45:37;102600;;;3.7;76.4
50040;BME280;44598;51.606;5.912;2023-01-28T06:25:37;102600;;;3.6;77.8
50040;BME280;44598;51.606;5.912;2023-01-28T06:38:57;102600;;;3.6;76.6
50040;BME280;44598;51.606;5.912;2023-01-28T06:52:16;102600;;;3.6;77.0
50040;BME280;44598;51.606;5.912;2023-01-28T07:05:36;102600;;;3.5;76.7
50040;BME280;44598;51.606;5.912;2023-01-28T07:18:56;102600;;;3.5;75.9
50040;BME280;44598;51.606;5.912;2023-01-28T07:32:16;102700;;;3.4;76.7
50040;BME280;44598;51.606;5.912;2023-01-28T08:12:15;102700;;;3.3;77.0
50040;BME280;44598;51.606;5.912;2023-01-28T08:25:35;102700;;;3.4;77.4
50040;BME280;44598;51.606;5.912;2023-01-28T08:38:55;102700;;;3.4;77.1
50040;BME280;44598;51.606;5.912;2023-01-28T08:52:15;102700;;;3.4;77.4
50040;BME280;44598;51.606;5.912;2023-01-28T09:18:54;102800;;;3.6;76.4
50040;BME280;44598;51.606;5.912;2023-01-28T09:58:54;102800;;;4.0;74.5
50040;BME280;44598;51.606;5.912;2023-01-28T10:12:14;102800;;;4.1;74.4
50040;BME280;44598;51.606;5.912;2023-01-28T10:25:33;102800;;;4.0;74.2
50040;BME280;44598;51.606;5.912;2023-01-28T10:38:53;102800;;;4.0;75.6
50040;BME280;44598;51.606;5.912;2023-01-28T11:05:33;102800;;;4.0;74.7
50040;BME280;44598;51.606;5.912;2023-01-28T11:18:53;102800;;;4.0;75.4
50040;BME280;44598;51.606;5.912;2023-01-28T11:32:13;102800;;;4.1;75.1
50040;BME280;44598;51.606;5.912;2023-01-28T11:45:32;102800;;;4.1;73.8
50040;BME280;44598;51.606;5.912;2023-01-28T12:12:12;102700;;;4.6;72.6
50040;BME280;44598;51.606;5.912;2023-01-28T12:25:32;102700;;;4.8;70.4
50040;BME280;44598;51.606;5.912;2023-01-28T12:38:52;102700;;;5.0;70.8
50040;BME280;44598;51.606;5.912;2023-01-28T12:52:12;102700;;;5.1;71.3
50040;BME280;44598;51.606;5.912;2023-01-28T13:58:51;102700;;;5.4;70.8
50040;BME280;44598;51.606;5.912;2023-01-28T14:12:10;102700;;;5.3;74.1
50040;BME280;44598;51.606;5.912;2023-01-28T14:25:30;102600;;;5.2;73.5
50040;BME280;44598;51.606;5.912;2023-01-28T14:38:50;102600;;;5.1;73.4
50040;BME280;44598;51.606;5.912;2023-01-28T15:05:29;102700;;;5.3;68.6
50040;BME280;44598;51.606;5.912;2023-01-28T15:18:49;102700;;;5.8;67.2
50040;BME280;44598;51.606;5.912;2023-01-28T15:32:09;102700;;;6.3;65.6
50040;BME280;44598;51.606;5.912;2023-01-28T15:45:29;102700;;;6.6;66.9
50040;BME280;44598;51.606;5.912;2023-01-28T15:58:49;102700;;;6.5;71.5
50040;BME280;44598;51.606;5.912;2023-01-28T16:12:08;102700;;;5.9;75.5
50040;BME280;44598;51.606;5.912;2023-01-28T16:25:28;102700;;;5.1;78.9
50040;BME280;44598;51.606;5.912;2023-01-28T17:18:48;102700;;;1.9;87.3
50040;BME280;44598;51.606;5.912;2023-01-28T17:32:07;102700;;;1.4;88.1
50040;BME280;44598;51.606;5.912;2023-01-28T17:58:47;102700;;;0.7;88.9
50040;BME280;44598;51.606;5.912;2023-01-28T18:12:07;102700;;;0.4;90.0
50040;BME280;44598;51.606;5.912;2023-01-28T18:25:27;102700;;;0.2;91.2
50040;BME280;44598;51.606;5.912;2023-01-28T18:38:46;102800;;;0.1;91.5
50040;BME280;44598;51.606;5.912;2023-01-28T18:52:06;102800;;;0.3;90.5
50040;BME280;44598;51.606;5.912;2023-01-28T19:05:26;102800;;;0.3;90.2
50040;BME280;44598;51.606;5.912;2023-01-28T19:45:25;102800;;;-0.2;91.4
50040;BME280;44598;51.606;5.912;2023-01-28T19:58:45;102800;;;-0.3;91.9
50040;BME280;44598;51.606;5.912;2023-01-28T20:12:05;102800;;;-0.4;92.0
50040;BME280;44598;51.606;5.912;2023-01-28T20:38:45;102800;;;-0.5;92.2
50040;BME280;44598;51.606;5.912;2023-01-28T20:52:05;102800;;;-0.5;92.5
50040;BME280;44598;51.606;5.912;2023-01-28T21:05:24;102800;;;-0.6;92.0
50040;BME280;44598;51.606;5.912;2023-01-28T21:18:44;102800;;;-0.6;91.9
50040;BME280;44598;51.606;5.912;2023-01-28T21:32:04;102700;;;-0.7;91.7
50040;BME280;44598;51.606;5.912;2023-01-28T21:45:24;102800;;;-0.8;92.1
50040;BME280;44598;51.606;5.912;2023-01-28T21:58:44;102800;;;-1.0;93.0
50040;BME280;44598;51.606;5.912;2023-01-28T22:12:03;102800;;;-1.0;93.0
50040;BME280;44598;51.606;5.912;2023-01-28T22:25:23;102800;;;-0.9;93.0
50040;BME280;44598;51.606;5.912;2023-01-28T22:38:43;102800;;;-0.9;92.7
50040;BME280;44598;51.606;5.912;2023-01-28T22:52:03;102800;;;-0.8;92.5
50040;BME280;44598;51.606;5.912;2023-01-28T23:05:23;102800;;;-0.8;92.8
50040;BME280;44598;51.606;5.912;2023-01-28T23:18:43;102700;;;-0.8;92.7
50040;BME280;44598;51.606;5.912;2023-01-28T23:32:02;102700;;;-0.8;92.5
